createdAt,value
2018-01-07T00:01:33.342Z,127.3
2018-01-07T00:11:32.662Z,121.0
2018-01-07T00:21:32.718Z,121.7
2018-01-07T00:31:27.565Z,133.8
2018-01-07T00:41:33.301Z,138.2
2018-01-07T00:51:32.059Z,141.2
2018-01-07T01:01:27.944Z,139.9
2018-01-07T01:11:33.623Z,139.6
2018-01-07T01:21:44.871Z,151.8
2018-01-07T01:31:45.853Z,143.7
2018-01-07T01:41:32.172Z,133.8
2018-01-07T01:51:32.834Z,151.6
2018-01-07T02:01:33.451Z,149.3
2018-01-07T02:11:36.895Z,151.4
2018-01-07T02:21:33.761Z,143.3
2018-01-07T02:31:32.754Z,129.8
2018-01-07T02:41:32.737Z,140.3
2018-01-07T02:51:30.710Z,135.0
2018-01-07T03:01:34.804Z,127.9
2018-01-07T03:11:33.480Z,126.3
2018-01-07T03:21:28.977Z,117.5
2018-01-07T03:31:32.166Z,125.8
2018-01-07T03:41:29.856Z,118.7
2018-01-07T03:51:26.410Z,133.4
2018-01-07T04:01:28.123Z,117.5
2018-01-07T04:11:27.196Z,113.8
2018-01-07T04:21:32.716Z,105.2
2018-01-07T04:31:27.642Z,113.1
2018-01-07T04:41:33.798Z,117.4
2018-01-07T04:51:33.635Z,101.9
2018-01-07T05:01:27.195Z,99.0
2018-01-07T05:11:28.417Z,111.9
2018-01-07T05:21:33.063Z,106.3
2018-01-07T05:31:29.794Z,99.6
2018-01-07T05:41:28.249Z,111.2
2018-01-07T05:51:27.764Z,98.1
2018-01-07T06:01:32.381Z,105.2
2018-01-07T06:11:27.189Z,91.0
2018-01-07T06:22:01.413Z,81.9
2018-01-07T06:31:32.724Z,81.6
2018-01-07T06:41:32.259Z,85.4
2018-01-07T06:51:28.256Z,95.8
2018-01-07T07:01:32.207Z,89.1
2018-01-07T07:11:33.344Z,91.7
2018-01-07T07:21:32.752Z,84.9
2018-01-07T07:31:32.253Z,85.1
2018-01-07T07:41:32.266Z,84.0
2018-01-07T07:51:28.790Z,94.1
2018-01-07T08:01:29.973Z,83.2
2018-01-07T08:11:28.221Z,90.9
2018-01-07T08:21:43.759Z,104.0
2018-01-07T08:31:28.334Z,93.8
2018-01-07T08:41:26.873Z,95.1
2018-01-07T08:51:32.141Z,89.5
2018-01-07T09:01:31.862Z,88.3
2018-01-07T09:11:26.958Z,79.8
2018-01-07T09:21:27.022Z,75.2
2018-01-07T09:31:26.975Z,72.0
2018-01-07T09:41:34.267Z,62.0
2018-01-07T09:51:32.285Z,54.4
2018-01-07T10:01:28.322Z,46.4
2018-01-07T10:11:26.925Z,37.5
2018-01-07T10:21:28.019Z,31.8
2018-01-07T10:31:27.379Z,36.1
2018-01-07T10:41:26.733Z,34.5
2018-01-07T10:51:30.999Z,29.2
2018-01-07T11:01:27.625Z,24.2
2018-01-07T11:11:27.713Z,33.5
2018-01-07T11:21:34.364Z,26.2
2018-01-07T11:31:41.713Z,26.9
2018-01-07T11:41:32.477Z,28.0
2018-01-07T11:51:33.989Z,23.2
2018-01-07T12:01:27.929Z,34.0
2018-01-07T12:11:29.131Z,34.9
2018-01-07T12:21:29.469Z,23.5
2018-01-07T12:31:31.086Z,14.3
2018-01-07T12:41:28.655Z,22.4
2018-01-07T12:51:33.506Z,15.8
2018-01-07T13:01:29.924Z,20.5
2018-01-07T13:11:34.552Z,21.3
2018-01-07T13:21:26.855Z,23.0
2018-01-07T13:31:29.528Z,19.2
2018-01-07T13:41:30.637Z,19.1
2018-01-07T13:51:28.266Z,19.4
2018-01-07T14:01:30.822Z,22.3
2018-01-07T14:11:30.099Z,21.5
2018-01-07T14:21:29.652Z,23.1
2018-01-07T14:31:28.136Z,23.8
2018-01-07T14:41:32.344Z,28.4
2018-01-07T14:51:28.533Z,27.4
2018-01-07T15:01:29.142Z,31.2
2018-01-07T15:11:26.953Z,34.8
2018-01-07T15:21:31.838Z,34.8
2018-01-07T15:31:58.256Z,24.2
2018-01-07T15:41:26.860Z,18.8
2018-01-07T15:51:26.341Z,15.7
2018-01-07T16:01:28.499Z,20.1
2018-01-07T16:11:26.897Z,23.7
2018-01-07T16:21:26.542Z,19.7
2018-01-07T16:31:27.038Z,23.7
2018-01-07T16:41:59.460Z,28.1
2018-01-07T16:51:32.271Z,24.0
2018-01-07T17:01:33.075Z,22.5
2018-01-07T17:11:31.999Z,23.6
2018-01-07T17:21:30.185Z,16.0
2018-01-07T17:31:27.798Z,16.9
2018-01-07T17:41:27.072Z,18.1
2018-01-07T17:51:26.454Z,16.7
2018-01-07T18:01:33.638Z,18.6
2018-01-07T18:11:28.219Z,14.6
2018-01-07T18:21:33.542Z,12.7
2018-01-07T18:31:28.457Z,13.9
2018-01-07T18:41:33.236Z,16.8
2018-01-07T18:51:29.583Z,15.2
2018-01-07T19:01:29.750Z,16.8
2018-01-07T19:11:28.598Z,13.7
2018-01-07T19:21:28.683Z,14.2
2018-01-07T19:31:32.699Z,14.2
2018-01-07T19:41:32.805Z,12.2
2018-01-07T19:51:29.187Z,19.3
2018-01-07T20:01:29.477Z,20.6
2018-01-07T20:11:33.477Z,21.6
2018-01-07T20:21:30.217Z,28.8
2018-01-07T20:31:27.015Z,22.9
2018-01-07T20:41:28.949Z,24.4
2018-01-07T20:51:29.845Z,21.8
2018-01-07T21:01:27.972Z,18.8
2018-01-07T21:11:26.745Z,17.6
2018-01-07T21:21:26.419Z,20.8
2018-01-07T21:31:29.021Z,20.8
2018-01-07T21:41:37.225Z,21.2
2018-01-07T21:51:28.895Z,18.7
2018-01-07T22:01:32.697Z,19.3
2018-01-07T22:11:29.283Z,20.0
2018-01-07T22:21:26.720Z,17.3
2018-01-07T22:31:31.107Z,18.0
2018-01-07T22:41:26.996Z,16.4
2018-01-07T22:51:27.960Z,24.5
2018-01-07T23:01:27.303Z,21.6
2018-01-07T23:11:27.723Z,19.2
2018-01-07T23:21:28.138Z,18.5
2018-01-07T23:31:26.498Z,16.9
2018-01-07T23:41:27.588Z,19.8
2018-01-07T23:51:26.812Z,19.7
